aviador You're here:

LFRG Decoded Metar

DEAUVILLE in FRANCE
Report Time2018-06-17 21:30:00
UTC Time2018-06-17 21:51:39
Flight Rules mvfr MVFR
Wind230° at 08 kt
W.Decomp.*RWY 30: 2.9 kt HW 7.5 kt LCW
W.Rank230° ranks 1
Current wind is above 230° avg. (7.9)
Visibility9999 m
Phenomena:N/A
Clouds:Overcast 016 Hf
Expected CloudBase > 1,200 ft AGL from Temp-Dew spread
Ceiling1,600 ft
Temp16°C (ISA +2)
Dew Point13°C (83% RH)
AAT14.1°C
QNH1021 hPa
Density Alt643 ft
Elevation479 ft
Report Wrong Elevation
Raw Report
LFRG 172130Z AUTO 23008KT 9999 OVC016 16/13 Q1021=

Extra information for LFRG:More info

Metar Taf Metar & Taf Last 4 Metars F.Rules Stats Wind Profile Meteogram Temp Stats Airport Information Weather charts Add Link Nearby VenuesMetar ALERT Operation Metar Decoded Social comments